Blue Spring, Kentucky
Current Conditions -  °F | °C
As of 6:42 PM on Monday 22 Dec 2014 (Local Time) from KHOP Reporting Station
Drizzle Drizzle  
Wind Chill: 52°   Ceiling: 900
Heat Index: 52°   Visibility: 10mi
Dew Point: 50°   Wind: 10mph
Humidity: 94%   Direction: 140°SE
Pressure: 29.66"   Gusts: NA
Location:  36.8031°N, 87.8159°W
Report Text: KHOP 230042Z AUTO 14009KT 10SM -DZ OVC009 11/10 A2966 RMK AO2
Loading
Personal Weather Stations






























Interactive Weather Map New forecast layout! Learn more

10-Day Weather Forecast

Advertisements
Track Severe Weather on mobile